sensor_id;sensor_type;location;lat;lon;timestamp;pressure;altitude;pressure_sealevel;temperature;humidity
50590;BME280;36547;50.514;30.840;2024-02-21T00:00:11;100468.38;;;1.46;89.40
50590;BME280;36547;50.514;30.840;2024-02-21T00:01:23;100474.48;;;1.45;89.40
50590;BME280;36547;50.514;30.840;2024-02-21T00:02:29;100471.88;;;1.45;89.46
50590;BME280;36547;50.514;30.840;2024-02-21T00:03:37;100462.31;;;1.44;89.46
50590;BME280;36547;50.514;30.840;2024-02-21T00:04:46;100471.03;;;1.44;89.57
50590;BME280;36547;50.514;30.840;2024-02-21T00:05:51;100466.63;;;1.45;89.59
50590;BME280;36547;50.514;30.840;2024-02-21T00:06:59;100467.49;;;1.47;89.66
50590;BME280;36547;50.514;30.840;2024-02-21T00:08:03;100465.70;;;1.52;89.56
50590;BME280;36547;50.514;30.840;2024-02-21T00:09:08;100463.08;;;1.53;89.52
50590;BME280;36547;50.514;30.840;2024-02-21T00:10:13;100461.30;;;1.57;89.45
50590;BME280;36547;50.514;30.840;2024-02-21T00:11:17;100468.30;;;1.56;89.36
50590;BME280;36547;50.514;30.840;2024-02-21T00:12:25;100464.74;;;1.59;89.29
50590;BME280;36547;50.514;30.840;2024-02-21T00:13:35;100465.66;;;1.58;89.25
50590;BME280;36547;50.514;30.840;2024-02-21T00:14:41;100465.61;;;1.59;89.25
50590;BME280;36547;50.514;30.840;2024-02-21T00:15:48;100464.73;;;1.60;89.23
50590;BME280;36547;50.514;30.840;2024-02-21T00:16:54;100459.50;;;1.60;89.16
50590;BME280;36547;50.514;30.840;2024-02-21T00:17:59;100463.86;;;1.60;89.15
50590;BME280;36547;50.514;30.840;2024-02-21T00:19:09;100457.75;;;1.61;89.13
50590;BME280;36547;50.514;30.840;2024-02-21T00:20:15;100456.86;;;1.62;89.10
50590;BME280;36547;50.514;30.840;2024-02-21T00:21:43;100457.75;;;1.61;89.11
50590;BME280;36547;50.514;30.840;2024-02-21T00:22:49;100461.22;;;1.63;89.08
50590;BME280;36547;50.514;30.840;2024-02-21T00:23:58;100454.22;;;1.65;89.05
50590;BME280;36547;50.514;30.840;2024-02-21T00:25:00;100459.43;;;1.68;89.03
50590;BME280;36547;50.514;30.840;2024-02-21T00:26:03;100455.06;;;1.68;88.99
50590;BME280;36547;50.514;30.840;2024-02-21T00:27:10;100455.92;;;1.70;88.93
50590;BME280;36547;50.514;30.840;2024-02-21T00:28:18;100462.94;;;1.67;88.87
50590;BME280;36547;50.514;30.840;2024-02-21T00:29:21;100455.93;;;1.69;88.85
50590;BME280;36547;50.514;30.840;2024-02-21T00:30:25;100449.83;;;1.68;88.83
50590;BME280;36547;50.514;30.840;2024-02-21T00:31:32;100455.95;;;1.66;88.83
50590;BME280;36547;50.514;30.840;2024-02-21T00:32:38;100456.81;;;1.68;88.84
50590;BME280;36547;50.514;30.840;2024-02-21T00:33:44;100454.19;;;1.68;88.85
50590;BME280;36547;50.514;30.840;2024-02-21T00:34:56;100453.33;;;1.67;88.87
50590;BME280;36547;50.514;30.840;2024-02-21T00:36:07;100457.69;;;1.67;88.84
50590;BME280;36547;50.514;30.840;2024-02-21T00:37:15;100451.58;;;1.68;88.85
50590;BME280;36547;50.514;30.840;2024-02-21T00:38:22;100448.94;;;1.69;88.86
50590;BME280;36547;50.514;30.840;2024-02-21T00:39:25;100448.93;;;1.71;88.84
50590;BME280;36547;50.514;30.840;2024-02-21T00:40:32;100447.16;;;1.73;88.82
50590;BME280;36547;50.514;30.840;2024-02-21T00:41:42;100452.36;;;1.74;88.77
50590;BME280;36547;50.514;30.840;2024-02-21T00:42:47;100455.81;;;1.78;88.70
50590;BME280;36547;50.514;30.840;2024-02-21T00:43:53;100438.39;;;1.74;88.62
50590;BME280;36547;50.514;30.840;2024-02-21T00:45:20;100435.81;;;1.72;88.57
50590;BME280;36547;50.514;30.840;2024-02-21T00:46:24;100438.36;;;1.77;88.57
50590;BME280;36547;50.514;30.840;2024-02-21T00:47:37;100430.48;;;1.78;88.57
50590;BME280;36547;50.514;30.840;2024-02-21T00:48:44;100436.59;;;1.79;88.52
50590;BME280;36547;50.514;30.840;2024-02-21T00:49:58;100429.63;;;1.78;88.47
50590;BME280;36547;50.514;30.840;2024-02-21T00:51:06;100429.59;;;1.81;88.46
50590;BME280;36547;50.514;30.840;2024-02-21T00:52:08;100425.25;;;1.78;88.40
50590;BME280;36547;50.514;30.840;2024-02-21T00:53:17;100425.23;;;1.80;88.42
50590;BME280;36547;50.514;30.840;2024-02-21T00:54:21;100424.38;;;1.78;88.43
50590;BME280;36547;50.514;30.840;2024-02-21T00:55:26;100419.11;;;1.81;88.47
50590;BME280;36547;50.514;30.840;2024-02-21T00:56:36;100423.48;;;1.81;88.43
50590;BME280;36547;50.514;30.840;2024-02-21T00:57:40;100429.61;;;1.80;88.41
50590;BME280;36547;50.514;30.840;2024-02-21T00:58:42;100419.11;;;1.81;88.48
50590;BME280;36547;50.514;30.840;2024-02-21T00:59:47;100419.09;;;1.83;88.48
50590;BME280;36547;50.514;30.840;2024-02-21T01:00:53;100413.00;;;1.81;88.47
50590;BME280;36547;50.514;30.840;2024-02-21T01:01:56;100416.49;;;1.81;88.46
50590;BME280;36547;50.514;30.840;2024-02-21T01:03:03;100414.74;;;1.82;88.50
50590;BME280;36547;50.514;30.840;2024-02-21T01:04:16;100419.11;;;1.81;88.47
50590;BME280;36547;50.514;30.840;2024-02-21T01:05:21;100419.08;;;1.84;88.46
50590;BME280;36547;50.514;30.840;2024-02-21T01:06:27;100419.05;;;1.87;88.47
50590;BME280;36547;50.514;30.840;2024-02-21T01:07:31;100413.84;;;1.84;88.41
50590;BME280;36547;50.514;30.840;2024-02-21T01:08:35;100417.34;;;1.83;88.36
50590;BME280;36547;50.514;30.840;2024-02-21T01:09:38;100410.37;;;1.82;88.36
50590;BME280;36547;50.514;30.840;2024-02-21T01:10:43;100411.23;;;1.83;88.41
50590;BME280;36547;50.514;30.840;2024-02-21T01:11:52;100406.87;;;1.83;88.44
50590;BME280;36547;50.514;30.840;2024-02-21T01:12:57;100406.88;;;1.82;88.49
50590;BME280;36547;50.514;30.840;2024-02-21T01:14:01;100413.00;;;1.81;88.52
50590;BME280;36547;50.514;30.840;2024-02-21T01:15:12;100405.12;;;1.82;88.53
50590;BME280;36547;50.514;30.840;2024-02-21T01:16:16;100414.74;;;1.82;88.56
50590;BME280;36547;50.514;30.840;2024-02-21T01:17:27;100408.62;;;1.83;88.55
50590;BME280;36547;50.514;30.840;2024-02-21T01:18:40;100402.51;;;1.82;88.56
50590;BME280;36547;50.514;30.840;2024-02-21T01:20:09;100405.11;;;1.84;88.57
50590;BME280;36547;50.514;30.840;2024-02-21T01:21:11;100405.03;;;1.88;88.58
50590;BME280;36547;50.514;30.840;2024-02-21T01:22:17;100397.23;;;1.85;88.52
50590;BME280;36547;50.514;30.840;2024-02-21T01:23:30;100395.50;;;1.84;88.51
50590;BME280;36547;50.514;30.840;2024-02-21T01:24:38;100398.99;;;1.85;88.56
50590;BME280;36547;50.514;30.840;2024-02-21T01:25:45;100396.36;;;1.86;88.61
50590;BME280;36547;50.514;30.840;2024-02-21T01:26:50;100400.66;;;1.89;88.61
50590;BME280;36547;50.514;30.840;2024-02-21T01:28:02;100397.23;;;1.85;88.56
50590;BME280;36547;50.514;30.840;2024-02-21T01:29:06;100396.31;;;1.88;88.62
50590;BME280;36547;50.514;30.840;2024-02-21T01:30:17;100394.55;;;1.88;88.62
50590;BME280;36547;50.514;30.840;2024-02-21T01:31:20;100382.38;;;1.87;88.64
50590;BME280;36547;50.514;30.840;2024-02-21T01:32:31;100391.12;;;1.86;88.67
50590;BME280;36547;50.514;30.840;2024-02-21T01:33:38;100396.30;;;1.89;88.69
50590;BME280;36547;50.514;30.840;2024-02-21T01:34:42;100393.69;;;1.88;88.69
50590;BME280;36547;50.514;30.840;2024-02-21T01:35:50;100387.61;;;1.87;88.70
50590;BME280;36547;50.514;30.840;2024-02-21T01:36:55;100388.50;;;1.86;88.73
50590;BME280;36547;50.514;30.840;2024-02-21T01:38:03;100392.00;;;1.85;88.76
50590;BME280;36547;50.514;30.840;2024-02-21T01:39:07;100392.03;;;1.82;88.85
50590;BME280;36547;50.514;30.840;2024-02-21T01:40:18;100392.02;;;1.84;88.86
50590;BME280;36547;50.514;30.840;2024-02-21T01:41:26;100387.67;;;1.81;88.94
50590;BME280;36547;50.514;30.840;2024-02-21T01:42:33;100390.30;;;1.81;89.03
50590;BME280;36547;50.514;30.840;2024-02-21T01:43:41;100389.41;;;1.82;89.10
50590;BME280;36547;50.514;30.840;2024-02-21T01:44:46;100379.83;;;1.80;89.13
50590;BME280;36547;50.514;30.840;2024-02-21T01:46:04;100391.15;;;1.83;89.19
50590;BME280;36547;50.514;30.840;2024-02-21T01:47:10;100388.55;;;1.82;89.15
50590;BME280;36547;50.514;30.840;2024-02-21T01:48:17;100383.30;;;1.82;89.19
50590;BME280;36547;50.514;30.840;2024-02-21T01:49:24;100383.30;;;1.82;89.28
50590;BME280;36547;50.514;30.840;2024-02-21T01:50:29;100391.15;;;1.83;89.25
50590;BME280;36547;50.514;30.840;2024-02-21T01:51:36;100388.53;;;1.83;89.28
50590;BME280;36547;50.514;30.840;2024-02-21T01:52:46;100389.37;;;1.85;89.32
50590;BME280;36547;50.514;30.840;2024-02-21T01:54:07;100389.31;;;1.88;89.30
50590;BME280;36547;50.514;30.840;2024-02-21T01:55:13;100390.17;;;1.90;89.24
50590;BME280;36547;50.514;30.840;2024-02-21T01:56:21;100384.91;;;1.92;89.25
50590;BME280;36547;50.514;30.840;2024-02-21T01:57:28;100391.91;;;1.91;89.25
50590;BME280;36547;50.514;30.840;2024-02-21T01:58:37;100397.99;;;1.93;89.20
50590;BME280;36547;50.514;30.840;2024-02-21T01:59:58;100395.39;;;1.92;89.21
50590;BME280;36547;50.514;30.840;2024-02-21T02:01:07;100387.48;;;1.96;89.22
50590;BME280;36547;50.514;30.840;2024-02-21T02:02:14;100387.45;;;1.99;89.23
50590;BME280;36547;50.514;30.840;2024-02-21T02:03:18;100393.56;;;2.00;89.17
50590;BME280;36547;50.514;30.840;2024-02-21T02:04:32;100389.19;;;2.00;89.13
50590;BME280;36547;50.514;30.840;2024-02-21T02:05:35;100387.45;;;1.99;89.08
50590;BME280;36547;50.514;30.840;2024-02-21T02:06:43;100397.05;;;2.00;89.06
50590;BME280;36547;50.514;30.840;2024-02-21T02:07:51;100383.96;;;1.99;89.10
50590;BME280;36547;50.514;30.840;2024-02-21T02:08:55;100389.22;;;1.97;89.14
50590;BME280;36547;50.514;30.840;2024-02-21T02:10:05;100394.42;;;2.00;89.26
50590;BME280;36547;50.514;30.840;2024-02-21T02:11:13;100387.45;;;1.99;89.24
50590;BME280;36547;50.514;30.840;2024-02-21T02:12:16;100387.43;;;2.01;89.27
50590;BME280;36547;50.514;30.840;2024-02-21T02:13:22;100383.08;;;2.00;89.30
50590;BME280;36547;50.514;30.840;2024-02-21T02:14:28;100389.12;;;2.03;89.31
50590;BME280;36547;50.514;30.840;2024-02-21T02:15:43;100382.14;;;2.02;89.27
50590;BME280;36547;50.514;30.840;2024-02-21T02:16:50;100383.05;;;2.01;89.28
50590;BME280;36547;50.514;30.840;2024-02-21T02:17:56;100378.63;;;2.03;89.29
50590;BME280;36547;50.514;30.840;2024-02-21T02:19:00;100376.90;;;2.02;89.30
50590;BME280;36547;50.514;30.840;2024-02-21T02:20:05;100382.14;;;2.02;89.31
50590;BME280;36547;50.514;30.840;2024-02-21T02:21:13;100381.25;;;2.03;89.33
50590;BME280;36547;50.514;30.840;2024-02-21T02:22:22;100381.23;;;2.05;89.35
50590;BME280;36547;50.514;30.840;2024-02-21T02:23:31;100381.23;;;2.05;89.36
50590;BME280;36547;50.514;30.840;2024-02-21T02:24:35;100384.71;;;2.07;89.35
50590;BME280;36547;50.514;30.840;2024-02-21T02:25:40;100390.84;;;2.06;89.32
50590;BME280;36547;50.514;30.840;2024-02-21T02:26:44;100384.69;;;2.08;89.30
50590;BME280;36547;50.514;30.840;2024-02-21T02:27:51;100387.30;;;2.10;89.31
50590;BME280;36547;50.514;30.840;2024-02-21T02:29:02;100385.55;;;2.10;89.29
50590;BME280;36547;50.514;30.840;2024-02-21T02:30:10;100390.77;;;2.12;89.28
50590;BME280;36547;50.514;30.840;2024-02-21T02:31:20;100382.02;;;2.13;89.27
50590;BME280;36547;50.514;30.840;2024-02-21T02:32:28;100384.64;;;2.13;89.25
50590;BME280;36547;50.514;30.840;2024-02-21T02:33:36;100383.73;;;2.16;89.29
50590;BME280;36547;50.514;30.840;2024-02-21T02:34:42;100385.44;;;2.17;89.26
50590;BME280;36547;50.514;30.840;2024-02-21T02:36:01;100383.73;;;2.16;89.22
50590;BME280;36547;50.514;30.840;2024-02-21T02:37:07;100381.94;;;2.18;89.25
50590;BME280;36547;50.514;30.840;2024-02-21T02:38:18;100387.17;;;2.18;89.24
50590;BME280;36547;50.514;30.840;2024-02-21T02:39:22;100388.98;;;2.16;89.23
50590;BME280;36547;50.514;30.840;2024-02-21T02:40:28;100394.23;;;2.14;89.34
50590;BME280;36547;50.514;30.840;2024-02-21T02:41:38;100391.62;;;2.14;89.39
50590;BME280;36547;50.514;30.840;2024-02-21T02:42:45;100396.86;;;2.14;89.42
50590;BME280;36547;50.514;30.840;2024-02-21T02:43:49;100394.26;;;2.12;89.46
50590;BME280;36547;50.514;30.840;2024-02-21T02:44:53;100394.26;;;2.12;89.50
50590;BME280;36547;50.514;30.840;2024-02-21T02:45:59;100399.50;;;2.12;89.56
50590;BME280;36547;50.514;30.840;2024-02-21T02:47:10;100396.89;;;2.11;89.67
50590;BME280;36547;50.514;30.840;2024-02-21T02:48:14;100397.77;;;2.11;89.72
50590;BME280;36547;50.514;30.840;2024-02-21T02:49:18;100398.62;;;2.12;89.74
50590;BME280;36547;50.514;30.840;2024-02-21T02:50:21;100401.25;;;2.12;89.80
50590;BME280;36547;50.514;30.840;2024-02-21T02:51:34;100399.50;;;2.12;89.82
50590;BME280;36547;50.514;30.840;2024-02-21T02:52:39;100396.03;;;2.10;89.85
50590;BME280;36547;50.514;30.840;2024-02-21T02:53:49;100401.27;;;2.10;89.91
50590;BME280;36547;50.514;30.840;2024-02-21T02:55:13;100392.54;;;2.10;89.98
50590;BME280;36547;50.514;30.840;2024-02-21T02:56:22;100398.65;;;2.10;89.98
50590;BME280;36547;50.514;30.840;2024-02-21T02:57:28;100398.61;;;2.13;90.04
50590;BME280;36547;50.514;30.840;2024-02-21T02:58:40;100395.11;;;2.15;90.08
50590;BME280;36547;50.514;30.840;2024-02-21T02:59:49;100397.66;;;2.18;90.06
50590;BME280;36547;50.514;30.840;2024-02-21T03:00:56;100404.64;;;2.19;90.03
50590;BME280;36547;50.514;30.840;2024-02-21T03:02:03;100402.87;;;2.21;90.00
50590;BME280;36547;50.514;30.840;2024-02-21T03:03:05;100394.12;;;2.22;89.95
50590;BME280;36547;50.514;30.840;2024-02-21T03:04:11;100400.19;;;2.25;89.95
50590;BME280;36547;50.514;30.840;2024-02-21T03:05:20;100401.06;;;2.26;89.88
50590;BME280;36547;50.514;30.840;2024-02-21T03:06:26;100397.55;;;2.27;89.90
50590;BME280;36547;50.514;30.840;2024-02-21T03:07:31;100394.05;;;2.28;89.80
50590;BME280;36547;50.514;30.840;2024-02-21T03:08:48;100404.57;;;2.25;89.80
50590;BME280;36547;50.514;30.840;2024-02-21T03:09:54;100392.34;;;2.24;89.82
50590;BME280;36547;50.514;30.840;2024-02-21T03:11:00;100406.34;;;2.23;89.89
50590;BME280;36547;50.514;30.840;2024-02-21T03:12:06;100398.47;;;2.23;89.97
50590;BME280;36547;50.514;30.840;2024-02-21T03:13:09;100399.33;;;2.25;90.06
50590;BME280;36547;50.514;30.840;2024-02-21T03:14:19;100409.81;;;2.25;90.09
50590;BME280;36547;50.514;30.840;2024-02-21T03:15:26;100392.33;;;2.25;90.12
50590;BME280;36547;50.514;30.840;2024-02-21T03:16:33;100403.69;;;2.26;90.13
50590;BME280;36547;50.514;30.840;2024-02-21T03:17:41;100405.40;;;2.28;90.10
50590;BME280;36547;50.514;30.840;2024-02-21T03:18:50;100401.00;;;2.30;90.07
50590;BME280;36547;50.514;30.840;2024-02-21T03:19:58;100407.12;;;2.31;90.00
50590;BME280;36547;50.514;30.840;2024-02-21T03:21:02;100402.69;;;2.33;89.98
50590;BME280;36547;50.514;30.840;2024-02-21T03:22:14;100406.16;;;2.35;89.93
50590;BME280;36547;50.514;30.840;2024-02-21T03:23:20;100403.54;;;2.35;89.86
50590;BME280;36547;50.514;30.840;2024-02-21T03:24:23;100406.14;;;2.36;89.86
50590;BME280;36547;50.514;30.840;2024-02-21T03:25:46;100399.14;;;2.37;89.84
50590;BME280;36547;50.514;30.840;2024-02-21T03:26:51;100401.75;;;2.38;89.82
50590;BME280;36547;50.514;30.840;2024-02-21T03:28:00;100403.48;;;2.39;89.79
50590;BME280;36547;50.514;30.840;2024-02-21T03:29:10;100399.11;;;2.40;89.77
50590;BME280;36547;50.514;30.840;2024-02-21T03:30:19;100408.71;;;2.41;89.76
50590;BME280;36547;50.514;30.840;2024-02-21T03:31:22;100411.30;;;2.44;89.78
50590;BME280;36547;50.514;30.840;2024-02-21T03:32:28;100409.54;;;2.44;89.70
50590;BME280;36547;50.514;30.840;2024-02-21T03:33:49;100409.48;;;2.46;89.66
50590;BME280;36547;50.514;30.840;2024-02-21T03:35:10;100405.98;;;2.47;89.63
50590;BME280;36547;50.514;30.840;2024-02-21T03:36:15;100418.20;;;2.48;89.59
50590;BME280;36547;50.514;30.840;2024-02-21T03:37:22;100412.95;;;2.48;89.55
50590;BME280;36547;50.514;30.840;2024-02-21T03:38:32;100416.47;;;2.47;89.55
50590;BME280;36547;50.514;30.840;2024-02-21T03:39:36;100411.19;;;2.50;89.60
50590;BME280;36547;50.514;30.840;2024-02-21T03:40:44;100413.81;;;2.50;89.56
50590;BME280;36547;50.514;30.840;2024-02-21T03:42:04;100419.03;;;2.52;89.57
50590;BME280;36547;50.514;30.840;2024-02-21T03:43:08;100418.17;;;2.51;89.51
50590;BME280;36547;50.514;30.840;2024-02-21T03:44:16;100418.17;;;2.51;89.53
50590;BME280;36547;50.514;30.840;2024-02-21T03:45:23;100420.77;;;2.53;89.52
50590;BME280;36547;50.514;30.840;2024-02-21T03:46:30;100411.14;;;2.53;89.50
50590;BME280;36547;50.514;30.840;2024-02-21T03:47:35;100410.34;;;2.48;89.55
50590;BME280;36547;50.514;30.840;2024-02-21T03:48:40;100416.54;;;2.44;89.69
50590;BME280;36547;50.514;30.840;2024-02-21T03:49:45;100413.84;;;2.47;89.75
50590;BME280;36547;50.514;30.840;2024-02-21T03:50:50;100428.77;;;2.45;89.82
50590;BME280;36547;50.514;30.840;2024-02-21T03:51:55;100424.34;;;2.47;89.90
50590;BME280;36547;50.514;30.840;2024-02-21T03:52:58;100412.07;;;2.49;89.89
50590;BME280;36547;50.514;30.840;2024-02-21T03:54:03;100424.30;;;2.50;89.84
50590;BME280;36547;50.514;30.840;2024-02-21T03:55:09;100428.66;;;2.51;89.86
50590;BME280;36547;50.514;30.840;2024-02-21T03:56:13;100425.14;;;2.52;89.84
50590;BME280;36547;50.514;30.840;2024-02-21T03:57:17;100423.37;;;2.54;89.84
50590;BME280;36547;50.514;30.840;2024-02-21T03:58:22;100426.84;;;2.56;89.87
50590;BME280;36547;50.514;30.840;2024-02-21T03:59:29;100420.75;;;2.54;89.82
50590;BME280;36547;50.514;30.840;2024-02-21T04:00:37;100412.86;;;2.56;89.78
50590;BME280;36547;50.514;30.840;2024-02-21T04:01:44;100415.48;;;2.56;89.68
50590;BME280;36547;50.514;30.840;2024-02-21T04:02:54;100418.98;;;2.56;89.71
50590;BME280;36547;50.514;30.840;2024-02-21T04:03:59;100423.34;;;2.57;89.76
50590;BME280;36547;50.514;30.840;2024-02-21T04:05:04;100417.23;;;2.55;89.79
50590;BME280;36547;50.514;30.840;2024-02-21T04:06:08;100412.84;;;2.57;89.83
50590;BME280;36547;50.514;30.840;2024-02-21T04:07:11;100414.58;;;2.58;89.78
50590;BME280;36547;50.514;30.840;2024-02-21T04:08:19;100418.86;;;2.62;89.75
50590;BME280;36547;50.514;30.840;2024-02-21T04:09:44;100419.73;;;2.63;89.71
50590;BME280;36547;50.514;30.840;2024-02-21T04:10:49;100430.16;;;2.67;89.64
50590;BME280;36547;50.514;30.840;2024-02-21T04:11:58;100426.66;;;2.68;89.58
50590;BME280;36547;50.514;30.840;2024-02-21T04:13:01;100424.88;;;2.70;89.54
50590;BME280;36547;50.514;30.840;2024-02-21T04:14:06;100420.54;;;2.68;89.47
50590;BME280;36547;50.514;30.840;2024-02-21T04:15:15;100426.66;;;2.68;89.40
50590;BME280;36547;50.514;30.840;2024-02-21T04:16:18;100421.37;;;2.71;89.39
50590;BME280;36547;50.514;30.840;2024-02-21T04:17:29;100419.63;;;2.70;89.40
50590;BME280;36547;50.514;30.840;2024-02-21T04:18:35;100419.61;;;2.72;89.40
50590;BME280;36547;50.514;30.840;2024-02-21T04:19:44;100428.35;;;2.72;89.39
50590;BME280;36547;50.514;30.840;2024-02-21T04:20:51;100426.54;;;2.74;89.38
50590;BME280;36547;50.514;30.840;2024-02-21T04:21:56;100429.12;;;2.77;89.32
50590;BME280;36547;50.514;30.840;2024-02-21T04:23:00;100430.86;;;2.78;89.23
50590;BME280;36547;50.514;30.840;2024-02-21T04:24:15;100434.35;;;2.79;89.19
50590;BME280;36547;50.514;30.840;2024-02-21T04:25:27;100432.58;;;2.81;89.13
50590;BME280;36547;50.514;30.840;2024-02-21T04:26:31;100433.44;;;2.81;89.08
50590;BME280;36547;50.514;30.840;2024-02-21T04:27:35;100436.11;;;2.78;89.14
50590;BME280;36547;50.514;30.840;2024-02-21T04:28:39;100431.75;;;2.77;89.20
50590;BME280;36547;50.514;30.840;2024-02-21T04:29:50;100434.38;;;2.77;89.27
50590;BME280;36547;50.514;30.840;2024-02-21T04:30:53;100433.48;;;2.78;89.29
50590;BME280;36547;50.514;30.840;2024-02-21T04:32:02;100429.97;;;2.79;89.33
50590;BME280;36547;50.514;30.840;2024-02-21T04:33:19;100425.39;;;2.92;89.42
50590;BME280;36547;50.514;30.840;2024-02-21T04:34:21;100428.23;;;2.78;89.48
50590;BME280;36547;50.514;30.840;2024-02-21T04:35:23;100431.70;;;2.80;89.47
50590;BME280;36547;50.514;30.840;2024-02-21T04:36:26;100425.59;;;2.80;89.45
50590;BME280;36547;50.514;30.840;2024-02-21T04:37:28;100434.35;;;2.79;89.50
50590;BME280;36547;50.514;30.840;2024-02-21T04:38:31;100436.09;;;2.80;89.45
50590;BME280;36547;50.514;30.840;2024-02-21T04:39:33;100433.44;;;2.81;89.52
50590;BME280;36547;50.514;30.840;2024-02-21T04:40:36;100432.55;;;2.82;89.54
50590;BME280;36547;50.514;30.840;2024-02-21T04:41:39;100436.00;;;2.86;89.55
50590;BME280;36547;50.514;30.840;2024-02-21T04:42:41;100436.00;;;2.86;89.50
50590;BME280;36547;50.514;30.840;2024-02-21T04:43:46;100437.69;;;2.89;89.50
50590;BME280;36547;50.514;30.840;2024-02-21T04:44:48;100441.16;;;2.91;89.46
50590;BME280;36547;50.514;30.840;2024-02-21T04:45:50;100439.41;;;2.91;89.42
50590;BME280;36547;50.514;30.840;2024-02-21T04:46:52;100439.38;;;2.93;89.37
50590;BME280;36547;50.514;30.840;2024-02-21T04:47:55;100442.00;;;2.93;89.31
50590;BME280;36547;50.514;30.840;2024-02-21T04:48:57;100444.61;;;2.94;89.23
50590;BME280;36547;50.514;30.840;2024-02-21T04:49:59;100445.44;;;2.98;89.17
50590;BME280;36547;50.514;30.840;2024-02-21T04:51:02;100444.56;;;2.97;89.09
50590;BME280;36547;50.514;30.840;2024-02-21T04:52:04;100443.70;;;2.97;88.97
50590;BME280;36547;50.514;30.840;2024-02-21T04:53:06;100444.59;;;2.96;88.96
50590;BME280;36547;50.514;30.840;2024-02-21T04:54:09;100450.70;;;2.96;88.95
50590;BME280;36547;50.514;30.840;2024-02-21T04:55:11;100447.23;;;2.94;88.93
50590;BME280;36547;50.514;30.840;2024-02-21T04:56:14;100452.46;;;2.96;88.89
50590;BME280;36547;50.514;30.840;2024-02-21T04:57:16;100455.05;;;2.99;88.89
50590;BME280;36547;50.514;30.840;2024-02-21T04:58:19;100446.30;;;2.98;88.85
50590;BME280;36547;50.514;30.840;2024-02-21T04:59:21;100448.95;;;2.97;88.79
50590;BME280;36547;50.514;30.840;2024-02-21T05:00:24;100446.34;;;2.95;88.83
50590;BME280;36547;50.514;30.840;2024-02-21T05:01:28;100444.56;;;2.97;88.85
50590;BME280;36547;50.514;30.840;2024-02-21T05:02:30;100454.20;;;2.97;88.84
50590;BME280;36547;50.514;30.840;2024-02-21T05:03:33;100452.42;;;2.99;88.82
50590;BME280;36547;50.514;30.840;2024-02-21T05:04:35;100450.66;;;2.99;88.78
50590;BME280;36547;50.514;30.840;2024-02-21T05:05:38;100448.91;;;3.00;88.82
50590;BME280;36547;50.514;30.840;2024-02-21T05:06:41;100449.77;;;3.00;88.78
50590;BME280;36547;50.514;30.840;2024-02-21T05:07:43;100450.64;;;3.01;88.78
50590;BME280;36547;50.514;30.840;2024-02-21T05:08:46;100451.51;;;3.01;88.77
50590;BME280;36547;50.514;30.840;2024-02-21T05:09:48;100455.88;;;3.02;88.73
50590;BME280;36547;50.514;30.840;2024-02-21T05:10:51;100451.48;;;3.03;88.74
50590;BME280;36547;50.514;30.840;2024-02-21T05:11:56;100451.41;;;3.06;88.72
50590;BME280;36547;50.514;30.840;2024-02-21T05:12:59;100462.76;;;3.08;88.69
50590;BME280;36547;50.514;30.840;2024-02-21T05:14:01;100453.99;;;3.09;88.65
50590;BME280;36547;50.514;30.840;2024-02-21T05:15:05;100455.73;;;3.10;88.57
50590;BME280;36547;50.514;30.840;2024-02-21T05:16:08;100454.81;;;3.12;88.55
50590;BME280;36547;50.514;30.840;2024-02-21T05:17:10;100453.06;;;3.13;88.49
50590;BME280;36547;50.514;30.840;2024-02-21T05:18:13;100453.03;;;3.14;88.46
50590;BME280;36547;50.514;30.840;2024-02-21T05:19:15;100451.28;;;3.15;88.41
50590;BME280;36547;50.514;30.840;2024-02-21T05:20:19;100462.57;;;3.18;88.39
50590;BME280;36547;50.514;30.840;2024-02-21T05:21:21;100466.14;;;3.16;88.29
50590;BME280;36547;50.514;30.840;2024-02-21T05:22:23;100458.27;;;3.16;88.32
50590;BME280;36547;50.514;30.840;2024-02-21T05:23:25;100455.64;;;3.16;88.27
50590;BME280;36547;50.514;30.840;2024-02-21T05:24:27;100460.89;;;3.16;88.24
50590;BME280;36547;50.514;30.840;2024-02-21T05:25:31;100467.01;;;3.16;88.22
50590;BME280;36547;50.514;30.840;2024-02-21T05:26:34;100467.92;;;3.14;88.29
50590;BME280;36547;50.514;30.840;2024-02-21T05:27:36;100474.02;;;3.16;88.33
50590;BME280;36547;50.514;30.840;2024-02-21T05:28:40;100473.12;;;3.17;88.34
50590;BME280;36547;50.514;30.840;2024-02-21T05:29:42;100467.80;;;3.20;88.31
50590;BME280;36547;50.514;30.840;2024-02-21T05:30:44;100468.64;;;3.22;88.25
50590;BME280;36547;50.514;30.840;2024-02-21T05:31:55;100476.56;;;3.19;88.22
50590;BME280;36547;50.514;30.840;2024-02-21T05:32:58;100469.53;;;3.21;88.24
50590;BME280;36547;50.514;30.840;2024-02-21T05:34:00;100472.14;;;3.23;88.25
50590;BME280;36547;50.514;30.840;2024-02-21T05:35:04;100468.69;;;3.19;88.18
50590;BME280;36547;50.514;30.840;2024-02-21T05:36:07;100467.80;;;3.20;88.21
50590;BME280;36547;50.514;30.840;2024-02-21T05:37:10;100472.27;;;3.16;88.27
50590;BME280;36547;50.514;30.840;2024-02-21T05:38:12;100463.46;;;3.17;88.29
50590;BME280;36547;50.514;30.840;2024-02-21T05:39:15;100466.06;;;3.19;88.29
50590;BME280;36547;50.514;30.840;2024-02-21T05:40:18;100460.00;;;3.17;88.31
50590;BME280;36547;50.514;30.840;2024-02-21T05:41:20;100467.83;;;3.18;88.37
50590;BME280;36547;50.514;30.840;2024-02-21T05:42:22;100463.52;;;3.16;88.42
50590;BME280;36547;50.514;30.840;2024-02-21T05:43:24;100466.14;;;3.16;88.42
50590;BME280;36547;50.514;30.840;2024-02-21T05:44:27;100460.89;;;3.16;88.43
50590;BME280;36547;50.514;30.840;2024-02-21T05:45:30;100463.46;;;3.17;88.47
50590;BME280;36547;50.514;30.840;2024-02-21T05:46:33;100467.83;;;3.18;88.56
50590;BME280;36547;50.514;30.840;2024-02-21T05:47:35;100482.66;;;3.21;88.58